Time;durP1;ratioP1;P1;durP2;ratioP2;P2;SDS_P1;SDS_P2;PMS_P1;PMS_P2;Temp;Humidity;BMP_temperature;BMP_pressure;BME280_temperature;BME280_humidity;BME280_pressure;Samples;Min_cycle;Max_cycle;Signal;HPM_P1;HPM_P2
2022/07/12 00:02:17;;;;;;;;;1.50;1.50;;;;;26.58;42.29;101793.59;4848661;29;45425;-71
2022/07/12 00:04:43;;;;;;;;;3.00;3.00;;;;;26.55;42.16;101788.38;4857572;29;45396;-71
2022/07/12 00:07:08;;;;;;;;;2.25;2.00;;;;;26.50;42.18;101785.16;4847307;29;45305;-71
2022/07/12 00:09:33;;;;;;;;;2.50;2.00;;;;;26.51;42.07;101784.13;4853951;29;45266;-71
2022/07/12 00:11:59;;;;;;;;;3.00;3.00;;;;;26.50;42.08;101778.81;4848083;29;45368;-71
2022/07/12 00:14:25;;;;;;;;;3.00;3.00;;;;;26.49;42.61;101782.53;4857588;29;45667;-71
2022/07/12 00:16:51;;;;;;;;;2.00;2.00;;;;;26.46;42.71;101778.19;4867982;29;45590;-71
2022/07/12 00:19:17;;;;;;;;;2.00;2.00;;;;;26.46;42.46;101780.91;4874734;29;45305;-71
2022/07/12 00:21:42;;;;;;;;;1.25;1.25;;;;;26.43;42.30;101775.72;4865969;29;45506;-71
2022/07/12 00:24:08;;;;;;;;;2.25;2.00;;;;;26.35;42.18;101776.34;4852245;29;45484;-71
2022/07/12 00:26:33;;;;;;;;;1.25;1.25;;;;;26.23;42.95;101766.44;4847095;29;45441;-71
2022/07/12 00:28:58;;;;;;;;;1.75;1.75;;;;;26.19;42.43;101771.25;4849330;29;47113;-71
2022/07/12 00:31:24;;;;;;;;;2.00;2.00;;;;;26.27;42.85;101783.47;4859010;29;46958;-71
2022/07/12 00:33:49;;;;;;;;;2.00;2.00;;;;;26.26;42.86;101782.56;4848166;29;45364;-71
2022/07/12 00:36:15;;;;;;;;;3.00;3.00;;;;;26.25;42.81;101778.97;4848369;29;45515;-71
2022/07/12 00:38:41;;;;;;;;;2.25;2.25;;;;;26.22;43.31;101786.56;4860017;29;45425;-71
2022/07/12 00:41:06;;;;;;;;;4.00;2.50;;;;;26.15;43.28;101779.88;4866372;29;45313;-72
2022/07/12 00:43:31;;;;;;;;;2.00;2.00;;;;;26.10;42.76;101771.19;4874177;29;45310;-71
2022/07/12 00:45:57;;;;;;;;;3.00;1.75;;;;;26.10;43.16;101772.03;4849184;29;45329;-71
2022/07/12 00:48:22;;;;;;;;;2.00;2.00;;;;;26.08;43.19;101765.84;4853513;29;45568;-71
2022/07/12 00:50:48;;;;;;;;;3.75;3.75;;;;;25.99;42.79;101764.69;4857376;29;46298;-71
2022/07/12 00:53:16;;;;;;;;;1.00;1.00;;;;;26.04;43.48;101769.78;4847883;29;45303;-71
2022/07/12 00:55:41;;;;;;;;;1.25;1.25;;;;;25.95;43.27;101760.47;4848272;29;45351;-71
2022/07/12 00:58:07;;;;;;;;;4.00;3.00;;;;;25.96;43.85;101764.97;4847504;29;45293;-71
2022/07/12 01:00:32;;;;;;;;;3.75;3.75;;;;;25.84;43.49;101752.25;4848041;29;47146;-71
2022/07/12 01:03:01;;;;;;;;;2.00;2.00;;;;;25.86;43.71;101755.72;4847573;29;45354;-71
2022/07/12 01:05:28;;;;;;;;;2.25;2.25;;;;;25.93;43.46;101759.72;4847774;29;45319;-71
2022/07/12 01:07:55;;;;;;;;;1.25;1.25;;;;;25.91;43.74;101766.28;4847481;29;45516;-71
2022/07/12 01:10:20;;;;;;;;;2.25;2.25;;;;;25.87;44.27;101765.69;4859080;29;45334;-71
2022/07/12 01:12:46;;;;;;;;;3.25;3.00;;;;;25.83;43.43;101756.84;4852643;29;45459;-71
2022/07/12 01:15:11;;;;;;;;;2.75;2.50;;;;;25.82;43.78;101766.03;4862039;29;45862;-71
2022/07/12 01:17:38;;;;;;;;;2.75;2.75;;;;;25.83;43.92;101762.31;4867137;29;45486;-71
2022/07/12 01:20:05;;;;;;;;;2.25;2.25;;;;;25.83;44.35;101773.25;4852289;29;46220;-71
2022/07/12 01:22:33;;;;;;;;;2.25;2.25;;;;;25.76;44.58;101761.09;4847399;29;45463;-71
2022/07/12 01:25:00;;;;;;;;;3.00;3.00;;;;;25.73;43.85;101772.28;4847391;29;45434;-72
2022/07/12 01:27:26;;;;;;;;;1.25;1.25;;;;;25.68;44.59;101767.16;4847048;29;45481;-71
2022/07/12 01:29:51;;;;;;;;;2.25;2.25;;;;;25.69;44.07;101762.56;4856784;29;45430;-71
2022/07/12 01:32:27;;;;;;;;;3.00;3.00;;;;;25.72;44.32;101762.31;4851728;29;46695;-71
2022/07/12 01:35:14;;;;;;;;;4.75;3.75;;;;;25.69;44.19;101759.81;4847412;29;45382;-71
2022/07/12 01:37:43;;;;;;;;;3.75;3.00;;;;;25.71;44.46;101755.13;4847212;29;45345;-71
2022/07/12 01:40:11;;;;;;;;;2.25;2.25;;;;;25.68;44.58;101749.91;4849162;29;45454;-71
2022/07/12 01:42:38;;;;;;;;;5.00;3.50;;;;;25.64;44.53;101752.03;4859020;29;45322;-71
2022/07/12 01:45:05;;;;;;;;;4.00;4.00;;;;;25.60;44.57;101738.72;4854049;29;45406;-71
2022/07/12 01:47:31;;;;;;;;;5.75;4.75;;;;;25.61;44.63;101749.53;4864749;29;45450;-71
2022/07/12 01:49:57;;;;;;;;;5.00;4.25;;;;;25.58;45.23;101744.31;4848169;29;47691;-71
2022/07/12 01:52:23;;;;;;;;;5.00;5.00;;;;;25.56;45.05;101749.03;4859450;29;45340;-71
2022/07/12 01:54:49;;;;;;;;;5.25;4.25;;;;;25.56;44.96;101750.88;4847472;29;45268;-71
2022/07/12 01:57:15;;;;;;;;;3.00;3.00;;;;;25.50;45.06;101746.78;4859458;29;45422;-71
2022/07/12 01:59:41;;;;;;;;;3.25;3.25;;;;;25.54;44.83;101758.31;4862202;29;45420;-71
2022/07/12 02:02:07;;;;;;;;;6.00;4.50;;;;;25.54;44.70;101755.59;4847119;29;45419;-71
2022/07/12 02:04:33;;;;;;;;;4.50;3.75;;;;;25.52;45.34;101761.19;4871982;29;45512;-71
2022/07/12 02:06:58;;;;;;;;;6.00;4.75;;;;;25.45;45.14;101746.28;4858895;29;45384;-71
2022/07/12 02:09:23;;;;;;;;;4.75;4.25;;;;;25.49;45.30;101754.13;4852718;29;46138;-71
2022/07/12 02:11:49;;;;;;;;;3.50;3.50;;;;;25.45;44.83;101749.88;4846766;29;46242;-71
2022/07/12 02:14:16;;;;;;;;;3.25;3.25;;;;;25.43;44.85;101749.13;4856301;29;45488;-71
2022/07/12 02:16:42;;;;;;;;;3.00;3.00;;;;;25.44;45.00;101758.19;4858168;29;45362;-71
2022/07/12 02:19:09;;;;;;;;;2.25;2.25;;;;;25.40;44.77;101763.03;4855039;29;46317;-71
2022/07/12 02:21:34;;;;;;;;;3.25;2.75;;;;;25.37;45.60;101760.53;4853800;29;45474;-71
2022/07/12 02:24:00;;;;;;;;;2.50;2.50;;;;;25.31;45.17;101755.56;4852210;29;45300;-71
2022/07/12 02:26:26;;;;;;;;;4.00;4.00;;;;;25.31;45.00;101755.56;4846732;29;45426;-71
2022/07/12 02:28:52;;;;;;;;;3.75;3.75;;;;;25.28;45.54;101751.22;4848153;29;45497;-71
2022/07/12 02:31:17;;;;;;;;;3.00;3.00;;;;;25.24;45.61;101751.53;4858095;29;45312;-71
2022/07/12 02:33:43;;;;;;;;;4.00;2.50;;;;;25.24;45.52;101757.91;4846563;29;45300;-71
2022/07/12 02:36:08;;;;;;;;;3.75;3.75;;;;;25.21;45.14;101757.25;4846830;29;45305;-71
2022/07/12 02:38:33;;;;;;;;;2.00;2.00;;;;;25.11;45.33;101749.78;4860568;29;45481;-71
2022/07/12 02:40:59;;;;;;;;;3.00;3.00;;;;;25.14;45.86;101756.84;4860769;29;45336;-71
2022/07/12 02:43:26;;;;;;;;;2.25;2.25;;;;;25.10;45.80;101756.22;4879198;29;45702;-71
2022/07/12 02:45:53;;;;;;;;;3.50;2.75;;;;;25.08;45.48;101750.00;4852400;29;45356;-71
2022/07/12 02:48:19;;;;;;;;;3.75;2.75;;;;;25.05;46.30;101752.97;4855983;29;45496;-71
2022/07/12 02:50:46;;;;;;;;;2.50;2.50;;;;;25.08;46.16;101762.81;4852183;29;45463;-71
2022/07/12 02:53:11;;;;;;;;;4.00;4.00;;;;;25.01;45.98;101758.78;4854303;29;45620;-71
2022/07/12 02:55:37;;;;;;;;;5.75;3.25;;;;;24.96;46.23;101761.91;4849515;29;45510;-71
2022/07/12 02:58:05;;;;;;;;;4.00;4.00;;;;;24.92;46.42;101760.38;4849189;29;45402;-71
2022/07/12 03:00:31;;;;;;;;;2.00;1.75;;;;;24.91;46.36;101766.84;4863598;29;45355;-71
2022/07/12 03:02:56;;;;;;;;;4.00;4.00;;;;;24.92;45.92;101769.44;4855490;29;45462;-71
2022/07/12 03:05:22;;;;;;;;;3.50;3.50;;;;;24.86;46.01;101764.47;4849269;29;45259;-71
2022/07/12 03:07:47;;;;;;;;;2.25;2.25;;;;;24.90;45.94;101770.56;4852292;29;46135;-71
2022/07/12 03:10:12;;;;;;;;;3.75;3.75;;;;;24.84;46.34;101766.47;4861585;29;45320;-71
2022/07/12 03:12:38;;;;;;;;;4.00;4.00;;;;;24.89;46.80;101772.44;4849064;29;45464;-71
2022/07/12 03:15:05;;;;;;;;;5.00;4.00;;;;;24.89;46.78;101772.44;4861305;29;45471;-71
2022/07/12 03:17:32;;;;;;;;;4.00;4.00;;;;;24.90;46.14;101776.88;4864033;29;47715;-71
2022/07/12 03:19:57;;;;;;;;;4.00;4.00;;;;;24.88;46.43;101773.41;4851404;29;45441;-71
2022/07/12 03:22:23;;;;;;;;;4.00;4.00;;;;;24.87;46.46;101768.06;4861753;29;45299;-71
2022/07/12 03:24:48;;;;;;;;;3.25;3.25;;;;;24.91;46.57;101777.78;4849248;29;45555;-71
2022/07/12 03:27:13;;;;;;;;;3.00;3.00;;;;;24.87;46.16;101776.25;4848910;29;45508;-71
2022/07/12 03:29:39;;;;;;;;;3.00;3.00;;;;;24.88;46.45;101778.88;4857999;29;45376;-71
2022/07/12 03:32:06;;;;;;;;;4.00;4.00;;;;;24.81;46.29;101763.06;4849165;29;45375;-71
2022/07/12 03:34:31;;;;;;;;;4.50;4.25;;;;;24.85;46.03;101770.03;4849109;29;45281;-71
2022/07/12 03:36:57;;;;;;;;;6.00;4.75;;;;;24.72;46.26;101746.41;4848881;29;46760;-71
2022/07/12 03:39:23;;;;;;;;;4.25;4.25;;;;;24.74;46.34;101758.09;4860691;29;45310;-71
2022/07/12 03:41:48;;;;;;;;;4.00;4.00;;;;;24.80;46.47;101777.72;4853928;29;45423;-71
2022/07/12 03:44:13;;;;;;;;;2.25;2.25;;;;;24.70;47.24;101761.16;4872876;29;45598;-71
2022/07/12 03:46:39;;;;;;;;;4.25;4.25;;;;;24.78;46.90;101780.56;4866444;29;46516;-71
2022/07/12 03:49:05;;;;;;;;;3.50;3.50;;;;;24.76;46.78;101772.50;4857484;29;45429;-71
2022/07/12 03:51:30;;;;;;;;;4.00;4.00;;;;;24.71;46.73;101771.97;4848837;29;45556;-71
2022/07/12 03:53:55;;;;;;;;;4.00;4.00;;;;;24.70;47.24;101772.94;4848449;29;45462;-71
2022/07/12 03:59:05;;;;;;;;;3.25;3.25;;;;;24.64;46.53;101773.44;4851808;29;45253;-71
2022/07/12 04:01:31;;;;;;;;;4.00;4.00;;;;;24.64;46.83;101784.34;4859230;29;45710;-71
2022/07/12 04:03:57;;;;;;;;;2.00;2.00;;;;;24.67;46.56;101786.81;4859482;29;45444;-71
2022/07/12 04:06:22;;;;;;;;;3.25;3.25;;;;;24.69;46.85;101792.16;4848151;29;45973;-71
2022/07/12 04:08:47;;;;;;;;;4.00;4.00;;;;;24.63;46.68;101796.25;4854612;29;45457;-71
2022/07/12 04:11:13;;;;;;;;;4.00;4.00;;;;;24.66;47.11;101796.03;4865336;29;45495;-71
2022/07/12 04:13:38;;;;;;;;;4.25;4.25;;;;;24.63;46.88;101792.66;4853570;29;45628;-71
2022/07/12 04:16:04;;;;;;;;;3.00;3.00;;;;;24.57;46.96;101794.88;4865654;29;45410;-71
2022/07/12 04:18:29;;;;;;;;;5.50;5.50;;;;;24.55;47.12;101799.53;4864702;29;45324;-71
2022/07/12 04:20:55;;;;;;;;;5.00;4.00;;;;;24.51;46.89;101802.59;4854179;29;45265;-70
2022/07/12 04:23:20;;;;;;;;;6.00;6.00;;;;;24.46;46.68;101807.50;4859159;29;45330;-70
2022/07/12 04:25:45;;;;;;;;;6.50;6.00;;;;;24.42;47.51;101813.22;4848027;29;45407;-70
2022/07/12 04:28:10;;;;;;;;;4.50;4.50;;;;;24.42;47.37;101820.50;4851644;29;45199;-70
2022/07/12 04:30:36;;;;;;;;;5.50;5.50;;;;;24.39;47.48;101808.00;4852891;29;45241;-71
2022/07/12 04:33:01;;;;;;;;;6.00;6.00;;;;;24.36;47.36;101808.22;4848235;29;45610;-71
2022/07/12 04:35:26;;;;;;;;;9.00;7.75;;;;;24.35;47.42;101801.00;4848115;29;45162;-71
2022/07/12 04:37:52;;;;;;;;;6.75;6.75;;;;;24.28;47.92;101812.50;4864763;29;45535;-71
2022/07/12 04:40:17;;;;;;;;;6.75;6.75;;;;;24.26;47.79;101809.88;4862570;29;45452;-71
2022/07/12 04:42:43;;;;;;;;;6.25;4.25;;;;;24.19;47.68;101798.53;4860599;29;45312;-71
2022/07/12 04:45:08;;;;;;;;;6.00;4.00;;;;;24.22;47.85;101802.88;4871884;29;45284;-71
2022/07/12 04:47:37;;;;;;;;;7.00;6.25;;;;;24.20;48.04;101796.69;4838425;29;45435;-70
2022/07/12 04:50:07;;;;;;;;;5.25;5.25;;;;;24.21;47.40;101812.06;4842568;29;45404;-71
2022/07/12 04:52:33;;;;;;;;;7.75;7.75;;;;;24.15;48.42;101793.41;4847751;29;45164;-71
2022/07/12 04:54:58;;;;;;;;;6.75;6.75;;;;;24.16;48.31;101808.81;4873770;29;46461;-71
2022/07/12 04:57:24;;;;;;;;;7.25;7.25;;;;;24.01;48.51;101783.53;4848682;29;45358;-70
2022/07/12 04:59:49;;;;;;;;;8.00;8.00;;;;;24.17;48.33;101816.88;4851985;29;45246;-70
2022/07/12 05:02:15;;;;;;;;;7.75;7.50;;;;;24.10;48.11;101804.66;4848001;29;45500;-70
2022/07/12 05:04:40;;;;;;;;;8.00;8.00;;;;;24.20;48.68;101826.69;4847512;29;45283;-70
2022/07/12 05:07:06;;;;;;;;;8.75;8.75;;;;;24.20;48.43;101827.56;4850175;29;45546;-70
2022/07/12 05:09:31;;;;;;;;;10.75;9.50;;;;;24.18;48.63;101821.34;4859896;29;45433;-70
2022/07/12 05:11:56;;;;;;;;;14.50;13.75;;;;;24.15;48.21;101829.75;4848287;29;45455;-70
2022/07/12 05:14:22;;;;;;;;;24.25;23.75;;;;;23.99;48.69;101802.72;4856491;29;46506;-70
2022/07/12 05:16:47;;;;;;;;;15.50;14.50;;;;;24.20;48.28;101843.06;4861762;29;45366;-70
2022/07/12 05:19:13;;;;;;;;;14.25;13.00;;;;;24.17;48.27;101837.81;4862808;29;45364;-70
2022/07/12 05:21:40;;;;;;;;;15.00;13.50;;;;;24.18;48.56;101845.03;4830733;29;45345;-70
2022/07/12 05:24:09;;;;;;;;;14.50;11.75;;;;;24.14;48.30;101838.94;4847116;29;46300;-70
2022/07/12 05:26:34;;;;;;;;;15.50;11.75;;;;;24.15;47.78;101839.78;4852849;29;45381;-69
2022/07/12 05:29:00;;;;;;;;;8.00;7.25;;;;;24.09;48.49;101842.94;4835365;29;45450;-70
2022/07/12 05:31:26;;;;;;;;;11.00;10.50;;;;;24.16;48.65;101847.00;4849022;29;45281;-70
2022/07/12 05:33:54;;;;;;;;;11.75;10.00;;;;;24.12;48.83;101848.19;4834307;29;45497;-70
2022/07/12 05:36:19;;;;;;;;;9.75;9.75;;;;;24.07;49.01;101845.78;4863185;29;45355;-70
2022/07/12 05:38:45;;;;;;;;;10.00;9.25;;;;;24.13;48.39;101867.19;4863120;29;45526;-70
2022/07/12 05:41:10;;;;;;;;;10.00;10.00;;;;;24.09;48.58;101862.03;4857803;29;46602;-71
2022/07/12 05:43:35;;;;;;;;;6.75;6.75;;;;;23.97;48.48;101851.06;4864872;29;45831;-73
2022/07/12 05:46:01;;;;;;;;;7.00;7.00;;;;;24.00;48.87;101861.72;4858674;29;45465;-72
2022/07/12 05:48:26;;;;;;;;;13.25;11.25;;;;;23.98;49.19;101869.16;4855174;29;45453;-71
2022/07/12 05:50:52;;;;;;;;;9.00;8.00;;;;;23.75;49.08;101829.00;4864141;29;45421;-71
2022/07/12 05:53:23;;;;;;;;;5.00;5.00;;;;;23.96;49.30;101870.25;4857606;29;48022;-71
2022/07/12 05:55:53;;;;;;;;;6.75;6.75;;;;;23.96;48.81;101872.97;4854921;29;45592;-71
2022/07/12 05:58:20;;;;;;;;;7.50;7.00;;;;;23.91;49.01;101870.56;4859990;29;45426;-71
2022/07/12 06:00:47;;;;;;;;;5.00;5.00;;;;;23.87;48.86;101869.03;4873975;29;45336;-71
2022/07/12 06:03:13;;;;;;;;;10.00;10.00;;;;;23.91;49.04;101873.31;4861100;29;45472;-71
2022/07/12 06:05:39;;;;;;;;;10.00;9.25;;;;;23.89;49.50;101871.66;4853199;29;45495;-71
2022/07/12 06:08:04;;;;;;;;;13.25;11.50;;;;;23.90;49.64;101873.41;4856567;29;45533;-71
2022/07/12 06:10:30;;;;;;;;;10.75;10.75;;;;;23.86;49.56;101872.75;4855764;29;45286;-70
2022/07/12 06:12:55;;;;;;;;;9.75;9.75;;;;;23.95;49.66;101877.53;4867318;29;46013;-70
2022/07/12 06:15:21;;;;;;;;;13.25;10.50;;;;;23.86;49.27;101867.31;4857219;29;45332;-70
2022/07/12 06:17:47;;;;;;;;;12.25;10.50;;;;;23.87;49.31;101874.47;4862180;29;45372;-68
2022/07/12 06:20:13;;;;;;;;;18.00;15.00;;;;;23.95;49.23;101891.19;4868435;29;45350;-67
2022/07/12 06:22:38;;;;;;;;;13.50;13.50;;;;;23.91;49.00;101878.75;4857606;29;45721;-68
2022/07/12 06:25:04;;;;;;;;;14.25;14.25;;;;;23.93;48.97;101879.50;4867601;29;45301;-68
2022/07/12 06:27:29;;;;;;;;;18.25;12.75;;;;;23.91;49.21;101889.66;4858978;29;45417;-68
2022/07/12 06:29:55;;;;;;;;;11.50;11.50;;;;;23.91;49.03;101886.94;4862139;29;45706;-67
2022/07/12 06:32:20;;;;;;;;;13.50;12.50;;;;;23.94;49.58;101885.81;4858994;29;45559;-68
2022/07/12 06:34:45;;;;;;;;;10.25;10.25;;;;;23.91;49.01;101869.72;4847263;29;45771;-68
2022/07/12 06:37:12;;;;;;;;;10.00;10.00;;;;;24.00;49.69;101882.69;4864530;29;45319;-68
2022/07/12 06:39:38;;;;;;;;;13.25;12.75;;;;;24.08;49.41;101893.06;4867134;29;45440;-68
2022/07/12 06:42:04;;;;;;;;;10.75;10.75;;;;;24.09;49.68;101887.50;4848736;29;47987;-68
2022/07/12 06:44:30;;;;;;;;;14.25;12.50;;;;;24.10;49.34;101893.81;4848449;29;45284;-67
2022/07/12 06:46:56;;;;;;;;;13.75;12.50;;;;;23.91;48.84;101865.13;4862595;29;45422;-67
2022/07/12 06:49:22;;;;;;;;;12.00;10.75;;;;;23.98;48.96;101877.34;4860302;29;45177;-67
2022/07/12 06:51:47;;;;;;;;;10.75;10.25;;;;;24.02;49.11;101892.50;4866204;29;46137;-67
2022/07/12 06:54:13;;;;;;;;;9.00;9.00;;;;;23.98;48.89;101888.25;4850721;29;46032;-67
2022/07/12 06:56:38;;;;;;;;;13.25;12.25;;;;;24.00;49.09;101882.69;4858560;29;45425;-67
2022/07/12 06:59:03;;;;;;;;;11.25;10.25;;;;;23.98;49.56;101881.91;4857834;29;45286;-67
2022/07/12 07:01:29;;;;;;;;;9.75;9.75;;;;;23.99;49.51;101884.53;4858132;29;45482;-68
2022/07/12 07:03:54;;;;;;;;;15.00;13.25;;;;;24.03;49.63;101896.97;4868360;29;45344;-68
2022/07/12 07:06:20;;;;;;;;;12.25;12.25;;;;;23.97;49.17;101886.50;4844963;29;45349;-68
2022/07/12 07:08:45;;;;;;;;;15.50;14.50;;;;;24.04;49.43;101893.25;4867682;29;45211;-68
2022/07/12 07:11:11;;;;;;;;;14.25;13.25;;;;;24.09;49.78;101903.84;4839109;29;47011;-68
2022/07/12 07:13:37;;;;;;;;;15.75;13.50;;;;;24.03;49.51;101893.38;4833408;29;46171;-69
2022/07/12 07:16:02;;;;;;;;;13.00;12.00;;;;;24.11;49.67;101901.03;4849824;29;45367;-68
2022/07/12 07:18:28;;;;;;;;;12.75;12.25;;;;;24.09;49.25;101890.22;4869179;29;45547;-68
2022/07/12 07:20:53;;;;;;;;;11.75;11.50;;;;;24.15;49.88;101900.66;4863470;29;50546;-68
2022/07/12 07:23:19;;;;;;;;;11.25;11.25;;;;;23.99;49.10;101876.34;4854947;29;45822;-69
2022/07/12 07:25:45;;;;;;;;;14.50;13.00;;;;;24.12;49.40;101889.09;4858739;29;45672;-68
2022/07/12 07:28:11;;;;;;;;;13.25;13.25;;;;;24.18;49.46;101905.03;4861473;29;45615;-68
2022/07/12 07:30:52;;;;;;;;;15.00;13.00;;;;;23.99;49.47;101859.09;4861679;29;45656;-68
2022/07/12 07:33:18;;;;;;;;;10.50;10.50;;;;;24.19;49.48;101899.47;4854346;29;45992;-68
2022/07/12 07:35:43;;;;;;;;;10.75;10.25;;;;;24.28;49.69;101897.94;4861082;29;45540;-69
2022/07/12 07:38:10;;;;;;;;;11.00;11.00;;;;;24.17;49.02;101876.00;4851970;29;45612;-68
2022/07/12 07:40:36;;;;;;;;;9.50;9.50;;;;;24.36;49.64;101897.41;4852178;29;46141;-68
2022/07/12 07:43:01;;;;;;;;;10.00;8.50;;;;;24.36;49.42;101890.06;4870435;29;45530;-69
2022/07/12 07:45:27;;;;;;;;;7.50;7.25;;;;;24.49;49.91;101902.81;4860609;29;45539;-68
2022/07/12 07:47:52;;;;;;;;;11.50;11.50;;;;;24.37;50.00;101878.19;4862204;29;45360;-68
2022/07/12 07:50:17;;;;;;;;;10.25;9.00;;;;;24.57;49.44;101889.50;4849598;29;47985;-68
2022/07/12 07:52:43;;;;;;;;;9.50;9.50;;;;;24.72;49.24;101914.81;4835639;29;45406;-68
2022/07/12 07:55:08;;;;;;;;;12.00;11.25;;;;;24.62;48.56;101889.19;4861924;29;45658;-68
2022/07/12 07:57:33;;;;;;;;;9.25;9.25;;;;;24.78;48.59;101917.09;4861443;29;45717;-68
2022/07/12 07:59:59;;;;;;;;;10.00;8.00;;;;;24.73;48.40;101905.63;4858053;29;46533;-68
2022/07/12 08:02:25;;;;;;;;;13.50;12.25;;;;;24.66;49.10;101883.38;4851293;29;45372;-69
2022/07/12 08:04:51;;;;;;;;;11.25;10.50;;;;;24.89;48.29;101913.53;4867740;29;45584;-68
2022/07/12 08:07:17;;;;;;;;;12.50;11.50;;;;;24.90;48.22;101907.97;4865377;29;45504;-68
2022/07/12 08:09:42;;;;;;;;;9.50;8.25;;;;;25.01;48.17;101912.66;4849168;29;48368;-69
2022/07/12 08:12:08;;;;;;;;;9.75;9.75;;;;;25.05;48.46;101905.09;4864525;29;45555;-68
2022/07/12 08:14:33;;;;;;;;;14.25;12.25;;;;;25.18;48.47;101911.38;4862770;29;45493;-68
2022/07/12 08:16:58;;;;;;;;;15.75;14.00;;;;;25.17;48.20;101898.69;4865569;29;45727;-68
2022/07/12 08:19:24;;;;;;;;;11.00;8.75;;;;;25.31;48.07;101909.47;4848311;29;45375;-68
2022/07/12 08:21:49;;;;;;;;;11.25;9.50;;;;;25.41;47.78;101906.91;4852474;29;45419;-68
2022/07/12 08:24:14;;;;;;;;;13.75;12.25;;;;;25.28;48.02;101885.09;4865671;29;45758;-68
2022/07/12 08:26:40;;;;;;;;;11.50;10.00;;;;;25.39;48.65;101889.72;4860473;29;45545;-68
2022/07/12 08:29:06;;;;;;;;;13.50;12.25;;;;;25.46;48.02;101893.75;4862687;29;47187;-68
2022/07/12 08:31:31;;;;;;;;;8.75;8.75;;;;;25.67;47.54;101909.47;4855657;29;45719;-68
2022/07/12 08:33:57;;;;;;;;;11.50;11.00;;;;;25.70;47.65;101906.50;4850199;29;45520;-69
2022/07/12 08:36:22;;;;;;;;;13.00;13.00;;;;;25.77;47.21;101915.94;4858669;29;45532;-69
2022/07/12 08:38:47;;;;;;;;;8.00;8.00;;;;;25.66;46.78;101896.78;4861022;29;45420;-73
2022/07/12 08:44:43;;;;;;;;;10.50;8.25;;;;;25.90;46.46;101904.94;4861591;29;45468;-69
2022/07/12 08:47:09;;;;;;;;;6.50;6.50;;;;;25.96;46.85;101907.22;4838972;29;45582;-69
2022/07/12 08:49:35;;;;;;;;;6.75;6.75;;;;;26.00;46.48;101911.44;4857814;29;46159;-70
2022/07/12 08:52:24;;;;;;;;;5.50;5.50;;;;;26.06;46.00;101913.69;4859653;29;45524;-67
2022/07/12 08:54:49;;;;;;;;;7.00;7.00;;;;;26.03;46.36;101892.06;4863981;29;45669;-67
2022/07/12 08:57:31;;;;;;;;;7.75;6.50;;;;;26.11;46.52;101899.66;4863643;29;45510;-68
2022/07/12 09:00:00;;;;;;;;;8.25;6.00;;;;;26.15;45.88;101892.94;4850793;29;45550;-68
2022/07/12 09:02:26;;;;;;;;;5.75;5.00;;;;;26.33;45.27;101911.56;4862230;29;45593;-68
2022/07/12 09:05:25;;;;;;;;;6.50;5.00;;;;;26.38;45.21;101917.53;4850835;29;45651;-68
2022/07/12 09:07:51;;;;;;;;;2.00;2.00;;;;;26.42;44.57;101916.31;4832405;29;45673;-68
2022/07/12 09:10:17;;;;;;;;;2.00;2.00;;;;;26.47;44.03;101919.53;4862901;29;46058;-68
2022/07/12 09:12:44;;;;;;;;;3.00;3.00;;;;;26.41;43.92;101896.28;4861603;29;45524;-67
2022/07/12 09:15:12;;;;;;;;;3.00;3.00;;;;;26.54;43.72;101912.56;4847104;29;45507;-68
2022/07/12 09:17:38;;;;;;;;;3.50;2.00;;;;;26.49;44.50;101898.38;4862459;29;45524;-68
2022/07/12 09:20:05;;;;;;;;;5.00;4.00;;;;;26.47;43.70;101889.44;4853700;29;46378;-68
2022/07/12 09:22:30;;;;;;;;;6.00;4.75;;;;;26.51;43.58;101890.91;4848326;29;45701;-68
2022/07/12 09:24:55;;;;;;;;;4.00;4.00;;;;;26.67;44.35;101911.59;4842468;29;45773;-68
2022/07/12 09:27:25;;;;;;;;;4.00;4.00;;;;;26.65;43.62;101902.63;4853581;29;45484;-68
2022/07/12 09:29:51;;;;;;;;;4.00;4.00;;;;;26.70;43.62;101911.38;4866454;29;46586;-68
2022/07/12 09:37:47;;;;;;;;;6.00;3.75;;;;;26.80;43.67;101884.94;4867117;29;45853;-68
2022/07/12 09:40:12;;;;;;;;;4.00;4.00;;;;;27.03;43.53;101915.00;4852921;29;45392;-68
2022/07/12 09:42:39;;;;;;;;;3.00;3.00;;;;;27.09;42.75;101914.50;4862391;29;45640;-68
2022/07/12 09:45:08;;;;;;;;;3.75;3.75;;;;;27.05;42.96;101899.28;4863274;29;45335;-68
2022/07/12 09:47:33;;;;;;;;;4.50;3.25;;;;;27.18;42.98;101922.81;4857634;29;45272;-68
2022/07/12 09:49:59;;;;;;;;;4.00;4.00;;;;;27.23;43.08;101916.06;4846813;29;46176;-68
2022/07/12 09:52:26;;;;;;;;;4.25;4.25;;;;;27.27;42.38;101912.94;4846406;29;46139;-68
2022/07/12 09:54:53;;;;;;;;;4.25;3.25;;;;;27.21;42.20;101893.41;4849283;29;45454;-68
2022/07/12 09:57:27;;;;;;;;;4.00;4.00;;;;;27.33;41.23;101917.03;4834710;29;46112;-68
2022/07/12 09:59:53;;;;;;;;;4.00;4.00;;;;;27.31;41.10;101906.22;4845434;29;47622;-68
2022/07/12 10:02:21;;;;;;;;;4.00;4.00;;;;;27.34;41.15;101908.69;4856458;29;45641;-68
2022/07/12 10:04:47;;;;;;;;;3.75;3.75;;;;;27.29;41.42;101897.25;4846653;29;45433;-68
2022/07/12 10:07:15;;;;;;;;;3.25;3.25;;;;;27.42;40.01;101905.31;4846403;29;45323;-68
2022/07/12 10:09:44;;;;;;;;;4.00;4.00;;;;;27.53;40.83;101923.56;4846690;29;45297;-68
2022/07/12 10:12:11;;;;;;;;;5.00;3.75;;;;;27.49;41.20;101906.50;4858760;29;45592;-68
2022/07/12 10:14:39;;;;;;;;;5.00;5.00;;;;;27.60;41.22;101900.13;4851554;29;45405;-69
2022/07/12 10:17:09;;;;;;;;;3.25;3.25;;;;;27.61;41.14;101901.84;4862380;29;45490;-68
2022/07/12 10:19:36;;;;;;;;;6.00;5.00;;;;;27.76;41.45;101916.09;4877013;29;45381;-68
2022/07/12 10:22:06;;;;;;;;;5.00;5.00;;;;;27.87;40.45;101917.91;4871349;29;45626;-68
2022/07/12 10:24:44;;;;;;;;;4.25;3.75;;;;;27.90;39.38;101918.50;4862417;29;45530;-68
2022/07/12 10:27:13;;;;;;;;;4.00;3.25;;;;;27.92;39.32;101912.88;4851046;29;45401;-68
2022/07/12 10:29:39;;;;;;;;;5.75;4.50;;;;;27.89;39.50;101907.66;4849655;29;46711;-69
2022/07/12 10:32:26;;;;;;;;;3.25;3.25;;;;;27.95;38.82;101898.94;4854540;29;47259;-68
2022/07/12 10:34:59;;;;;;;;;4.75;4.75;;;;;28.02;38.48;101907.50;4870179;29;45969;-68
2022/07/12 10:37:25;;;;;;;;;3.75;3.75;;;;;28.05;37.94;101913.56;4878085;29;45815;-68
2022/07/12 10:40:16;;;;;;;;;4.50;4.00;;;;;28.07;38.09;101919.78;4873350;29;45600;-68
2022/07/12 10:43:00;;;;;;;;;4.00;4.00;;;;;28.07;38.08;101908.81;4875328;29;45467;-68
2022/07/12 10:45:50;;;;;;;;;3.25;3.00;;;;;28.04;37.93;101897.25;4880753;29;45386;-68
2022/07/12 10:48:15;;;;;;;;;3.00;3.00;;;;;28.11;37.55;101905.81;4879035;29;45579;-68
2022/07/12 10:50:44;;;;;;;;;7.00;5.00;;;;;28.12;38.67;101902.91;4888501;29;47219;-69
2022/07/12 10:53:18;;;;;;;;;5.00;5.00;;;;;28.20;37.77;101908.59;4886563;28;45394;-68
2022/07/12 10:56:17;;;;;;;;;8.25;5.25;;;;;28.24;37.52;101909.19;4889688;29;46376;-69
2022/07/12 10:58:44;;;;;;;;;3.00;3.00;;;;;28.30;37.91;101905.91;4885132;29;45356;-69
2022/07/12 11:01:17;;;;;;;;;4.00;4.00;;;;;28.32;37.32;101912.13;4875562;29;47216;-68
2022/07/12 11:03:46;;;;;;;;;5.00;4.50;;;;;28.31;37.16;101898.53;4875574;29;45890;-68
2022/07/12 11:06:16;;;;;;;;;4.00;4.00;;;;;28.34;37.32;101893.63;4885897;29;45846;-68
2022/07/12 11:09:03;;;;;;;;;6.00;5.50;;;;;28.45;37.24;101899.03;4885862;29;45508;-68
2022/07/12 11:11:33;;;;;;;;;4.00;4.00;;;;;28.44;36.89;101897.28;4887576;29;45783;-69
2022/07/12 11:14:00;;;;;;;;;6.75;5.75;;;;;28.44;37.07;101893.66;4883437;29;45524;-70
2022/07/12 11:16:26;;;;;;;;;3.50;3.50;;;;;28.51;36.08;101903.06;4891888;29;45575;-70
2022/07/12 11:18:53;;;;;;;;;4.00;4.00;;;;;28.33;36.79;101864.41;4893008;29;45383;-69
2022/07/12 11:21:19;;;;;;;;;6.75;6.75;;;;;28.44;36.08;101883.53;4887270;29;45428;-69
2022/07/12 11:23:45;;;;;;;;;4.00;4.00;;;;;28.58;36.79;101895.19;4888121;28;45413;-69
2022/07/12 11:26:12;;;;;;;;;3.50;3.50;;;;;28.64;36.19;101905.63;4881077;29;45548;-68
2022/07/12 11:28:39;;;;;;;;;4.25;4.25;;;;;28.62;37.44;101891.16;4881796;29;45513;-68
2022/07/12 11:31:12;;;;;;;;;8.00;5.00;;;;;28.71;35.39;101894.94;4884715;29;45501;-68
2022/07/12 11:33:39;;;;;;;;;4.75;4.75;;;;;28.72;35.64;101897.53;4880744;29;45366;-68